Time;durP1;ratioP1;P1;durP2;ratioP2;P2;SDS_P1;SDS_P2;PMS_P1;PMS_P2;Temp;Humidity;BMP_temperature;BMP_pressure;BME280_temperature;BME280_humidity;BME280_pressure;Samples;Min_cycle;Max_cycle;Signal;HPM_P1;HPM_P2
2021/11/08 00:02:20;;;;;;;16.75;3.40;;;8.30;99.90;;;;;;4993204;28;20085;-53
2021/11/08 00:04:46;;;;;;;13.18;3.15;;;8.30;99.90;;;;;;4993246;28;20070;-52
2021/11/08 00:07:11;;;;;;;19.50;2.88;;;8.30;99.90;;;;;;4979094;28;20157;-52
2021/11/08 00:09:41;;;;;;;15.18;2.78;;;8.30;99.90;;;;;;4992964;28;20050;-52
2021/11/08 00:12:10;;;;;;;18.50;3.03;;;8.40;99.90;;;;;;4997868;28;20093;-52
2021/11/08 00:14:36;;;;;;;20.02;3.08;;;8.30;99.90;;;;;;4993160;28;20038;-52
2021/11/08 00:17:14;;;;;;;17.33;4.07;;;8.30;99.90;;;;;;4992739;28;20038;-52
2021/11/08 00:22:05;;;;;;;19.88;4.32;;;8.30;99.90;;;;;;4993260;28;20042;-52
2021/11/08 00:24:32;;;;;;;13.95;2.75;;;8.30;99.90;;;;;;4992785;28;20496;-52
2021/11/08 00:27:00;;;;;;;19.83;2.65;;;8.30;99.90;;;;;;4991933;28;20042;-52
2021/11/08 00:29:25;;;;;;;15.85;3.00;;;8.30;99.90;;;;;;4991923;28;20046;-52
2021/11/08 00:31:51;;;;;;;14.55;2.33;;;8.40;99.90;;;;;;4992568;28;20035;-54
2021/11/08 00:34:17;;;;;;;17.15;2.40;;;8.30;99.90;;;;;;4992549;28;20045;-52
2021/11/08 00:36:42;;;;;;;12.07;2.42;;;8.40;99.90;;;;;;4994476;28;20038;-52
2021/11/08 00:39:09;;;;;;;16.60;2.70;;;8.40;99.90;;;;;;4997390;28;20041;-51
2021/11/08 00:41:35;;;;;;;22.02;2.88;;;8.40;99.90;;;;;;4975469;28;20140;-51
2021/11/08 00:44:01;;;;;;;15.50;2.78;;;8.50;99.90;;;;;;4992708;28;20070;-52
2021/11/08 00:46:27;;;;;;;17.13;2.70;;;8.50;99.90;;;;;;4994833;28;20031;-52
2021/11/08 00:48:52;;;;;;;24.02;2.97;;;8.50;99.90;;;;;;4992435;28;20046;-52
2021/11/08 00:51:18;;;;;;;18.50;2.42;;;8.50;99.90;;;;;;4998374;28;20036;-52
2021/11/08 00:53:45;;;;;;;15.63;2.75;;;8.50;99.90;;;;;;4996218;28;20113;-52
2021/11/08 00:56:16;;;;;;;17.50;2.60;;;8.50;99.90;;;;;;4999526;28;20053;-51
2021/11/08 00:58:44;;;;;;;14.57;2.53;;;8.50;99.90;;;;;;4978716;28;20038;-52
2021/11/08 01:01:12;;;;;;;12.32;2.50;;;8.50;99.90;;;;;;4985954;28;20049;-52
2021/11/08 01:03:42;;;;;;;17.08;3.13;;;8.50;99.90;;;;;;4975888;28;20507;-53
2021/11/08 01:06:09;;;;;;;13.65;2.58;;;8.50;99.90;;;;;;4992052;28;20113;-52
2021/11/08 01:08:35;;;;;;;17.67;2.65;;;8.50;99.90;;;;;;4992088;28;20078;-53
2021/11/08 01:11:01;;;;;;;13.00;2.60;;;8.50;99.90;;;;;;4994866;28;20525;-51
2021/11/08 01:13:27;;;;;;;15.48;2.80;;;8.50;99.90;;;;;;4992254;28;20034;-51
2021/11/08 01:15:55;;;;;;;15.15;2.50;;;8.50;99.90;;;;;;4992076;28;20065;-54
2021/11/08 01:18:21;;;;;;;13.95;2.50;;;8.50;99.90;;;;;;4987209;28;20038;-53
2021/11/08 01:20:47;;;;;;;11.98;2.30;;;8.50;99.90;;;;;;4993469;28;20425;-52
2021/11/08 01:23:15;;;;;;;19.27;2.55;;;8.50;99.90;;;;;;4995866;28;20034;-52
2021/11/08 01:25:41;;;;;;;12.40;2.63;;;8.50;99.90;;;;;;4991797;28;20046;-52
2021/11/08 01:28:08;;;;;;;18.98;2.75;;;8.50;99.90;;;;;;4990946;28;20057;-52
2021/11/08 01:30:34;;;;;;;16.17;2.72;;;8.50;99.90;;;;;;4991805;28;20472;-51
2021/11/08 01:33:07;;;;;;;13.27;2.17;;;8.50;99.90;;;;;;4974210;28;20336;-52
2021/11/08 01:35:40;;;;;;;17.75;2.30;;;8.50;99.90;;;;;;4991592;28;20042;-54
2021/11/08 01:40:33;;;;;;;17.38;2.80;;;8.50;99.90;;;;;;4991106;28;20543;-52
2021/11/08 01:42:59;;;;;;;12.55;2.13;;;8.50;99.90;;;;;;4990856;28;20402;-52
2021/11/08 01:45:25;;;;;;;14.50;2.30;;;8.50;99.90;;;;;;4991729;28;20048;-52
2021/11/08 01:47:51;;;;;;;13.23;2.30;;;8.50;99.90;;;;;;4990930;28;20125;-54
2021/11/08 01:50:17;;;;;;;18.05;3.25;;;8.50;99.90;;;;;;4977351;28;20133;-53
2021/11/08 01:52:43;;;;;;;14.35;2.95;;;8.50;99.90;;;;;;4991092;28;20042;-51
2021/11/08 01:55:08;;;;;;;15.75;2.63;;;8.50;99.90;;;;;;4998245;28;20046;-52
2021/11/08 01:57:37;;;;;;;13.93;2.63;;;8.40;99.90;;;;;;4991215;28;20048;-52
2021/11/08 02:00:06;;;;;;;22.10;3.03;;;8.40;99.90;;;;;;4991797;28;20050;-52
2021/11/08 02:02:31;;;;;;;14.43;2.53;;;8.40;99.90;;;;;;4974638;28;20038;-53
2021/11/08 02:04:57;;;;;;;16.05;2.50;;;8.40;99.90;;;;;;4974222;28;20034;-53
2021/11/08 02:07:22;;;;;;;14.57;2.80;;;8.30;99.90;;;;;;4990823;28;20053;-51
2021/11/08 02:09:49;;;;;;;17.05;2.58;;;8.30;99.90;;;;;;4992338;28;20046;-52
2021/11/08 02:12:15;;;;;;;19.05;2.67;;;8.30;99.90;;;;;;4992846;28;20522;-52
2021/11/08 02:14:41;;;;;;;14.35;2.63;;;8.20;99.90;;;;;;4974772;28;20030;-52
2021/11/08 02:17:08;;;;;;;15.55;2.80;;;8.20;99.90;;;;;;4992654;28;20030;-52
2021/11/08 02:19:34;;;;;;;12.55;2.25;;;8.10;99.90;;;;;;4992045;28;20034;-52
2021/11/08 02:22:02;;;;;;;12.60;2.35;;;8.10;99.90;;;;;;4995940;28;20096;-52
2021/11/08 02:24:30;;;;;;;20.35;2.55;;;8.10;99.90;;;;;;4996307;28;20034;-55
2021/11/08 02:26:56;;;;;;;22.10;3.03;;;8.10;99.90;;;;;;4991102;28;20089;-54
2021/11/08 02:29:22;;;;;;;15.35;2.55;;;8.00;99.90;;;;;;4989824;28;20034;-55
2021/11/08 02:31:50;;;;;;;12.77;2.65;;;8.00;99.90;;;;;;4992636;28;20038;-55
2021/11/08 02:34:16;;;;;;;12.98;2.20;;;8.00;99.90;;;;;;4988845;28;20034;-54
2021/11/08 02:36:42;;;;;;;13.63;3.30;;;7.90;99.90;;;;;;4990455;28;20494;-55
2021/11/08 02:39:14;;;;;;;16.17;2.90;;;7.90;99.90;;;;;;4997685;28;20042;-54
2021/11/08 02:41:40;;;;;;;16.13;2.13;;;7.80;99.90;;;;;;4991122;28;20035;-55
2021/11/08 02:44:06;;;;;;;14.27;2.70;;;7.80;99.90;;;;;;4990958;28;20030;-52
2021/11/08 02:46:37;;;;;;;10.10;2.53;;;7.80;99.90;;;;;;4990738;28;20034;-53
2021/11/08 02:49:05;;;;;;;18.27;2.60;;;7.70;99.90;;;;;;4990849;28;20093;-55
2021/11/08 02:51:31;;;;;;;15.18;2.63;;;7.70;99.90;;;;;;4992886;28;20092;-52
2021/11/08 02:54:02;;;;;;;13.10;2.30;;;7.70;99.90;;;;;;4996918;28;20031;-52
2021/11/08 02:56:29;;;;;;;9.70;2.20;;;7.60;99.90;;;;;;4998653;28;20030;-52
2021/11/08 02:58:54;;;;;;;13.18;2.63;;;7.60;99.90;;;;;;4994243;28;20042;-52
2021/11/08 03:01:23;;;;;;;11.13;1.95;;;7.50;99.90;;;;;;4994451;28;20056;-51
2021/11/08 03:03:55;;;;;;;16.55;2.70;;;7.50;99.90;;;;;;4977384;28;20123;-52
2021/11/08 03:06:27;;;;;;;17.90;2.38;;;7.40;99.90;;;;;;4976412;28;20046;-52
2021/11/08 03:08:54;;;;;;;13.35;2.17;;;7.40;99.90;;;;;;4975147;28;20061;-52
2021/11/08 03:11:22;;;;;;;13.45;2.22;;;7.40;99.90;;;;;;4994082;28;20065;-52
2021/11/08 03:18:55;;;;;;;14.05;2.53;;;7.30;99.90;;;;;;4993849;28;20054;-52
2021/11/08 03:21:21;;;;;;;10.45;2.13;;;7.30;99.90;;;;;;4988546;28;20404;-53
2021/11/08 03:23:50;;;;;;;12.85;2.47;;;7.30;99.90;;;;;;4992880;28;20042;-52
2021/11/08 03:26:42;;;;;;;9.88;2.05;;;7.20;99.90;;;;;;4993416;28;20129;-52
2021/11/08 03:29:10;;;;;;;13.67;2.30;;;7.20;99.90;;;;;;4993766;28;20035;-52
2021/11/08 03:31:36;;;;;;;15.82;2.45;;;7.20;99.90;;;;;;4997033;28;20393;-54
2021/11/08 03:34:02;;;;;;;12.25;2.45;;;7.20;99.90;;;;;;4993780;28;20403;-52
2021/11/08 03:36:28;;;;;;;13.40;2.17;;;7.10;99.90;;;;;;4993249;28;20034;-55
2021/11/08 03:38:54;;;;;;;13.90;2.35;;;7.10;99.90;;;;;;4993383;28;20405;-52
2021/11/08 03:41:19;;;;;;;14.07;2.30;;;7.10;99.90;;;;;;4993781;28;20044;-53
2021/11/08 03:43:45;;;;;;;12.88;2.42;;;7.00;99.90;;;;;;4999308;28;20174;-52
2021/11/08 03:46:11;;;;;;;15.93;2.40;;;7.00;99.90;;;;;;4999823;28;20561;-52
2021/11/08 03:48:36;;;;;;;15.02;2.90;;;7.00;99.90;;;;;;5000809;28;20034;-54
2021/11/08 03:51:03;;;;;;;14.23;2.35;;;7.00;99.90;;;;;;4999896;28;20041;-52
2021/11/08 03:53:28;;;;;;;10.85;2.22;;;7.00;99.90;;;;;;4994561;28;20121;-54
2021/11/08 03:55:54;;;;;;;12.38;2.97;;;7.00;99.90;;;;;;4993631;28;20137;-53
2021/11/08 03:58:21;;;;;;;15.50;2.47;;;7.00;99.90;;;;;;4992905;28;20038;-52
2021/11/08 04:00:49;;;;;;;11.57;2.40;;;6.90;99.90;;;;;;4989665;28;20042;-53
2021/11/08 04:03:15;;;;;;;14.18;3.13;;;7.00;99.90;;;;;;4993634;28;20039;-52
2021/11/08 04:05:41;;;;;;;13.48;2.30;;;7.00;99.90;;;;;;4994389;28;20475;-52
2021/11/08 04:08:12;;;;;;;14.25;2.90;;;7.00;99.90;;;;;;4993182;28;20092;-51
2021/11/08 04:10:42;;;;;;;12.80;3.10;;;7.00;99.90;;;;;;4993079;28;20128;-52
2021/11/08 04:13:08;;;;;;;14.85;2.50;;;7.00;99.90;;;;;;4993497;28;20127;-52
2021/11/08 04:15:38;;;;;;;19.50;2.83;;;7.00;99.90;;;;;;4993695;28;20042;-52
2021/11/08 04:18:10;;;;;;;14.27;2.80;;;7.10;99.90;;;;;;5035007;22;20046;-50
2021/11/08 04:20:37;;;;;;;16.27;2.67;;;7.00;99.90;;;;;;5005983;28;20524;-52
2021/11/08 04:23:03;;;;;;;12.80;2.10;;;7.10;99.90;;;;;;5012742;28;20030;-51
2021/11/08 04:25:29;;;;;;;13.68;2.70;;;7.10;99.90;;;;;;5007629;28;20034;-50
2021/11/08 04:27:56;;;;;;;12.60;2.33;;;7.10;99.90;;;;;;5000858;28;20034;-48
2021/11/08 04:30:25;;;;;;;10.85;2.10;;;7.10;99.90;;;;;;4970604;28;20474;-50
2021/11/08 04:35:31;;;;;;;17.05;2.45;;;7.20;99.90;;;;;;4988885;28;20491;-50
2021/11/08 04:38:10;;;;;;;23.48;3.45;;;7.20;99.90;;;;;;4990709;28;20043;-49
2021/11/08 04:45:52;;;;;;;16.48;2.30;;;7.30;99.90;;;;;;4987074;28;20121;-51
2021/11/08 04:51:19;;;;;;;17.17;2.37;;;7.30;99.90;;;;;;4962554;28;20056;-55
2021/11/08 05:31:44;;;;;;;17.80;3.22;;;7.10;99.90;;;;;;4991487;28;20038;-50
2021/11/08 05:34:10;;;;;;;13.70;3.17;;;7.10;99.90;;;;;;4991738;28;20034;-53
2021/11/08 05:36:36;;;;;;;20.00;3.00;;;7.10;99.90;;;;;;4991674;28;20049;-52
2021/11/08 05:39:04;;;;;;;14.60;2.95;;;7.10;99.90;;;;;;4991978;28;20117;-52
2021/11/08 05:41:30;;;;;;;15.52;3.35;;;7.10;99.90;;;;;;4991834;28;20038;-53
2021/11/08 05:43:56;;;;;;;15.77;3.25;;;7.20;99.90;;;;;;4972861;28;20034;-51
2021/11/08 05:46:22;;;;;;;18.98;3.53;;;7.10;99.90;;;;;;4974524;28;20074;-52
2021/11/08 05:48:49;;;;;;;13.43;3.28;;;7.20;99.90;;;;;;4990954;28;20186;-51
2021/11/08 05:51:15;;;;;;;16.77;3.83;;;7.20;99.90;;;;;;4995823;28;20049;-49
2021/11/08 05:53:44;;;;;;;16.50;3.42;;;7.20;99.90;;;;;;4992320;28;20044;-51
2021/11/08 06:50:22;;;;;;;18.55;3.08;;;7.30;99.90;;;;;;4993064;28;20049;-53
2021/11/08 06:52:50;;;;;;;22.40;4.25;;;7.30;99.90;;;;;;4991298;28;20390;-49
2021/11/08 06:55:17;;;;;;;17.23;3.25;;;7.30;99.90;;;;;;4994074;28;20525;-49
2021/11/08 06:57:46;;;;;;;15.23;3.65;;;7.30;99.90;;;;;;4964926;28;20118;-49
2021/11/08 07:00:13;;;;;;;18.90;2.90;;;7.30;99.90;;;;;;4989415;28;20043;-51
2021/11/08 07:02:39;;;;;;;14.73;2.90;;;7.30;99.90;;;;;;4993796;28;20455;-50
2021/11/08 07:05:05;;;;;;;14.00;3.45;;;7.30;99.90;;;;;;4970167;28;20069;-49
2021/11/08 07:07:31;;;;;;;15.05;3.15;;;7.30;99.90;;;;;;4976962;28;20034;-52
2021/11/08 07:09:57;;;;;;;12.43;3.30;;;7.30;99.90;;;;;;4994303;28;20589;-49
2021/11/08 07:12:22;;;;;;;10.70;3.45;;;7.30;99.90;;;;;;4994633;28;20113;-49
2021/11/08 07:14:48;;;;;;;22.88;3.38;;;7.30;99.90;;;;;;4989790;28;20053;-50
2021/11/08 07:17:14;;;;;;;15.88;3.30;;;7.40;99.90;;;;;;4985895;28;20407;-54
2021/11/08 07:19:39;;;;;;;15.75;2.95;;;7.30;99.90;;;;;;4991837;28;20271;-52
2021/11/08 07:22:05;;;;;;;16.70;3.17;;;7.30;99.90;;;;;;4994270;28;20035;-50
2021/11/08 07:24:31;;;;;;;13.63;3.83;;;7.30;99.90;;;;;;4993834;28;20062;-50
2021/11/08 07:26:57;;;;;;;17.50;3.40;;;7.30;99.90;;;;;;4997767;28;20103;-51
2021/11/08 07:29:25;;;;;;;18.77;4.20;;;7.30;99.90;;;;;;4993686;28;20045;-51
2021/11/08 07:31:50;;;;;;;18.20;3.03;;;7.40;99.90;;;;;;4990028;28;20042;-52
2021/11/08 07:34:17;;;;;;;17.58;3.30;;;7.30;99.90;;;;;;4991728;28;20545;-49
2021/11/08 07:36:43;;;;;;;11.45;2.70;;;7.30;99.90;;;;;;4993263;28;20049;-54
2021/11/08 07:39:09;;;;;;;16.77;4.05;;;7.40;99.90;;;;;;4991229;28;20093;-56
2021/11/08 07:41:35;;;;;;;19.48;3.40;;;7.40;99.90;;;;;;4974430;28;20038;-51
2021/11/08 07:44:02;;;;;;;12.43;3.50;;;7.40;99.90;;;;;;4991125;28;20030;-51
2021/11/08 07:46:28;;;;;;;15.13;3.63;;;7.50;99.90;;;;;;4991443;28;20077;-49
2021/11/08 07:48:54;;;;;;;17.02;3.80;;;7.50;99.90;;;;;;4969476;28;20030;-49
2021/11/08 07:51:20;;;;;;;16.83;3.38;;;7.50;99.90;;;;;;4975276;28;20041;-49
2021/11/08 07:53:47;;;;;;;12.85;3.88;;;7.50;99.90;;;;;;4993341;28;20038;-48
2021/11/08 07:56:13;;;;;;;16.48;3.95;;;7.60;99.90;;;;;;4992857;28;20038;-49
2021/11/08 07:58:40;;;;;;;15.52;3.70;;;7.50;99.90;;;;;;4992863;28;20034;-51
2021/11/08 08:01:06;;;;;;;13.82;3.25;;;7.60;99.90;;;;;;4990119;28;20039;-51
2021/11/08 08:03:33;;;;;;;22.10;3.65;;;7.60;99.90;;;;;;4993043;28;20030;-52
2021/11/08 08:06:00;;;;;;;19.48;4.03;;;7.70;99.90;;;;;;4992990;28;20038;-50
2021/11/08 08:08:26;;;;;;;17.13;3.45;;;7.70;99.90;;;;;;4990520;28;20038;-52
2021/11/08 08:10:53;;;;;;;15.52;3.20;;;7.80;99.90;;;;;;4992952;28;20056;-52
2021/11/08 08:13:23;;;;;;;20.83;3.85;;;8.00;99.90;;;;;;4992793;28;20405;-51
2021/11/08 08:15:50;;;;;;;20.75;3.47;;;8.10;99.90;;;;;;4993168;28;20042;-52
2021/11/08 08:18:15;;;;;;;12.85;3.03;;;8.10;99.90;;;;;;4989798;28;20417;-53
2021/11/08 08:20:42;;;;;;;13.95;2.80;;;8.20;99.90;;;;;;4992925;28;20097;-54
2021/11/08 08:23:08;;;;;;;16.58;3.00;;;8.30;99.90;;;;;;4992825;28;20410;-52
2021/11/08 08:25:34;;;;;;;17.77;3.17;;;8.30;99.90;;;;;;4989406;28;20030;-50
2021/11/08 08:28:00;;;;;;;18.35;3.17;;;8.40;99.90;;;;;;4993039;28;20089;-50
2021/11/08 08:30:27;;;;;;;12.05;2.88;;;8.40;99.90;;;;;;4992912;28;20042;-54
2021/11/08 08:32:56;;;;;;;18.65;2.90;;;8.50;99.90;;;;;;4990318;28;20041;-51
2021/11/08 08:35:22;;;;;;;16.67;3.28;;;8.50;99.90;;;;;;4992754;28;20038;-54
2021/11/08 08:37:47;;;;;;;19.02;3.22;;;8.50;99.90;;;;;;4989668;28;20042;-52
2021/11/08 08:40:14;;;;;;;16.50;3.20;;;8.50;99.90;;;;;;4992441;28;20490;-52
2021/11/08 08:42:40;;;;;;;16.05;3.15;;;8.60;99.90;;;;;;4990771;28;20045;-51
2021/11/08 08:45:07;;;;;;;18.27;3.58;;;8.60;99.90;;;;;;4989938;28;20041;-51
2021/11/08 08:47:33;;;;;;;14.60;3.40;;;8.70;99.90;;;;;;4986790;28;20133;-54
2021/11/08 08:49:59;;;;;;;15.50;3.47;;;8.70;99.90;;;;;;4991185;28;20038;-53
2021/11/08 08:52:24;;;;;;;14.77;3.15;;;8.80;99.90;;;;;;4992666;28;20116;-53
2021/11/08 08:54:52;;;;;;;19.17;3.20;;;8.80;99.90;;;;;;4986853;28;20065;-54
2021/11/08 08:57:19;;;;;;;17.85;3.72;;;8.90;99.90;;;;;;4972293;28;20494;-54
2021/11/08 08:59:44;;;;;;;15.57;3.50;;;8.90;99.90;;;;;;4969951;28;20054;-54
2021/11/08 09:02:14;;;;;;;20.10;3.65;;;8.90;99.90;;;;;;4992579;28;20034;-54
2021/11/08 09:04:40;;;;;;;11.70;2.80;;;8.90;99.90;;;;;;4974983;28;20105;-54
2021/11/08 09:07:07;;;;;;;16.13;3.58;;;8.90;99.90;;;;;;4974536;28;20042;-52
2021/11/08 09:09:35;;;;;;;15.88;2.92;;;8.90;99.90;;;;;;4975352;28;20084;-54
2021/11/08 09:12:01;;;;;;;14.27;2.92;;;8.90;99.90;;;;;;4974828;28;20042;-51
2021/11/08 09:14:29;;;;;;;17.60;3.30;;;9.00;99.90;;;;;;4992445;28;20122;-54
2021/11/08 09:16:55;;;;;;;15.48;2.78;;;9.00;99.90;;;;;;4991302;28;20117;-51
2021/11/08 09:19:21;;;;;;;20.27;3.15;;;9.10;99.90;;;;;;4992607;28;20126;-54
2021/11/08 09:21:48;;;;;;;15.73;3.17;;;9.20;99.90;;;;;;4991998;28;20470;-54
2021/11/08 09:24:13;;;;;;;16.40;4.03;;;9.20;99.90;;;;;;4992079;28;20410;-52
2021/11/08 09:26:39;;;;;;;24.00;3.90;;;9.30;99.90;;;;;;4944590;28;20042;-51
2021/11/08 09:29:05;;;;;;;13.65;3.40;;;9.30;99.90;;;;;;4992047;28;20542;-51
2021/11/08 09:31:31;;;;;;;12.18;3.00;;;9.40;99.90;;;;;;4974098;28;20066;-51
2021/11/08 09:34:04;;;;;;;20.83;3.83;;;9.40;99.90;;;;;;4974886;28;20041;-51
2021/11/08 09:36:32;;;;;;;17.40;3.20;;;9.40;99.90;;;;;;4991922;28;20108;-49
2021/11/08 09:38:59;;;;;;;15.55;2.92;;;9.50;99.90;;;;;;4984413;28;20038;-53
2021/11/08 09:41:32;;;;;;;17.63;3.28;;;9.50;99.90;;;;;;4991870;28;20050;-49
2021/11/08 09:43:59;;;;;;;;;;;9.50;99.90;;;;;;4992250;28;20034;-49
2021/11/08 09:46:25;;;;;;;21.48;3.55;;;9.60;99.90;;;;;;4991938;28;19921;-49
2021/11/08 09:48:52;;;;;;;18.80;3.15;;;9.60;99.90;;;;;;4990907;28;20128;-52
2021/11/08 09:51:19;;;;;;;21.52;3.72;;;9.70;99.90;;;;;;4990221;28;20045;-49
2021/11/08 09:53:45;;;;;;;22.52;3.17;;;9.70;99.90;;;;;;4970924;28;20038;-49
2021/11/08 09:56:13;;;;;;;15.00;2.75;;;9.80;99.90;;;;;;4990268;28;20486;-53
2021/11/08 09:58:38;;;;;;;14.77;3.10;;;9.80;99.90;;;;;;4985926;28;20053;-52
2021/11/08 10:01:15;;;;;;;19.95;3.60;;;9.90;99.90;;;;;;4986093;28;20050;-50
2021/11/08 10:03:44;;;;;;;16.38;3.10;;;9.90;99.90;;;;;;4993596;28;20121;-52
2021/11/08 10:06:10;;;;;;;13.35;3.35;;;10.00;99.90;;;;;;4996526;28;20034;-52
2021/11/08 10:08:38;;;;;;;16.95;2.58;;;10.00;99.90;;;;;;4992534;28;20034;-49
2021/11/08 10:11:17;;;;;;;14.82;2.83;;;10.00;99.90;;;;;;4990430;28;20038;-49
2021/11/08 10:13:45;;;;;;;19.63;3.33;;;10.10;99.90;;;;;;4991080;28;20434;-49
2021/11/08 10:16:36;;;;;;;12.95;2.92;;;10.10;99.90;;;;;;4988217;28;20429;-52
2021/11/08 10:19:06;;;;;;;22.73;3.30;;;10.10;99.90;;;;;;5027073;22;20147;-52
2021/11/08 10:21:39;;;;;;;16.60;2.67;;;10.20;99.90;;;;;;5022390;28;20032;-53
2021/11/08 10:24:06;;;;;;;;;;;10.20;99.90;;;;;;5017099;28;20473;-52
2021/11/08 10:26:35;;;;;;;14.35;2.65;;;10.20;99.90;;;;;;5011743;28;19917;-52
2021/11/08 10:29:07;;;;;;;13.18;2.53;;;10.20;99.90;;;;;;5029549;28;20046;-52
2021/11/08 10:31:34;;;;;;;;;;;10.20;99.90;;;;;;5025873;28;20553;-54
2021/11/08 10:34:05;;;;;;;14.93;2.63;;;10.20;99.90;;;;;;5029526;28;19928;-53
2021/11/08 10:36:31;;;;;;;16.83;2.40;;;10.20;99.90;;;;;;5029391;28;20502;-54
2021/11/08 10:38:59;;;;;;;12.18;2.35;;;10.20;99.90;;;;;;5011661;28;20405;-52
2021/11/08 10:41:30;;;;;;;17.45;2.47;;;10.20;99.90;;;;;;5029558;28;20087;-52
2021/11/08 10:44:12;;;;;;;9.52;1.83;;;10.10;99.90;;;;;;5023471;28;20505;-52
2021/11/08 10:46:41;;;;;;;14.02;2.08;;;10.10;99.90;;;;;;5026592;28;20100;-52
2021/11/08 10:49:20;;;;;;;11.13;2.22;;;10.10;99.90;;;;;;5029491;28;20091;-52
2021/11/08 10:51:54;;;;;;;9.73;1.75;;;10.00;99.90;;;;;;5029354;28;20065;-53
2021/11/08 10:54:24;;;;;;;8.93;1.70;;;10.00;99.90;;;;;;5011600;28;20041;-52
2021/11/08 10:56:59;;;;;;;7.50;1.70;;;10.00;99.90;;;;;;5028838;28;21160;-53
2021/11/08 10:59:32;;;;;;;9.55;1.60;;;10.00;99.90;;;;;;5027522;28;20030;-52
2021/11/08 11:02:01;;;;;;;8.95;1.92;;;10.00;99.90;;;;;;5025332;28;20037;-52
2021/11/08 11:04:45;;;;;;;10.82;1.60;;;10.00;99.90;;;;;;5029651;28;20382;-52
2021/11/08 11:07:18;;;;;;;8.27;2.00;;;10.00;99.90;;;;;;5022931;28;20386;-52
2021/11/08 11:09:44;;;;;;;12.68;2.38;;;10.00;99.90;;;;;;5028966;28;20528;-52
2021/11/08 11:12:17;;;;;;;14.65;1.95;;;10.00;99.90;;;;;;5029303;28;20052;-51
2021/11/08 11:15:08;;;;;;;16.30;1.73;;;10.00;99.90;;;;;;5008374;28;20037;-55
2021/11/08 11:17:42;;;;;;;11.03;1.83;;;10.00;99.90;;;;;;4995904;28;1042002;-52
2021/11/08 11:20:16;;;;;;;11.98;2.33;;;10.10;99.90;;;;;;5029202;28;20128;-54
2021/11/08 11:22:47;;;;;;;9.95;1.95;;;10.50;99.90;;;;;;5039745;28;20119;-52
2021/11/08 11:25:16;;;;;;;11.10;1.63;;;10.20;99.90;;;;;;5036411;28;20040;-54
2021/11/08 11:27:48;;;;;;;12.98;2.00;;;10.20;99.90;;;;;;5036441;28;20413;-52
2021/11/08 11:30:21;;;;;;;14.23;2.83;;;10.20;99.90;;;;;;5035434;28;20033;-51
2021/11/08 11:33:04;;;;;;;12.02;1.83;;;10.30;99.90;;;;;;5033739;28;20496;-52
2021/11/08 11:35:34;;;;;;;19.83;2.70;;;10.20;99.90;;;;;;5035188;28;20049;-51
2021/11/08 11:38:02;;;;;;;11.93;1.70;;;10.20;99.90;;;;;;5031700;28;20037;-52
2021/11/08 11:40:30;;;;;;;15.07;2.15;;;10.20;99.90;;;;;;5033267;28;20171;-52
2021/11/08 11:42:58;;;;;;;9.10;1.80;;;10.20;99.90;;;;;;5030415;28;20431;-51
2021/11/08 11:45:24;;;;;;;13.15;2.20;;;10.20;99.90;;;;;;5025760;28;20123;-52
2021/11/08 11:48:02;;;;;;;9.98;2.05;;;10.20;99.90;;;;;;5030753;28;20222;-53
2021/11/08 11:50:31;;;;;;;10.98;1.92;;;10.10;99.90;;;;;;5034373;28;20045;-54
2021/11/08 11:52:58;;;;;;;17.85;2.25;;;10.20;99.90;;;;;;5030781;28;20037;-53
2021/11/08 11:55:24;;;;;;;15.23;2.60;;;10.10;99.90;;;;;;5031248;28;20037;-54
2021/11/08 11:57:55;;;;;;;16.58;2.58;;;10.10;99.90;;;;;;5029905;28;20053;-53
2021/11/08 12:00:21;;;;;;;9.15;1.80;;;10.10;99.90;;;;;;5032590;28;20436;-54
2021/11/08 12:02:50;;;;;;;13.30;2.17;;;10.10;99.90;;;;;;5030668;28;20167;-53
2021/11/08 12:05:16;;;;;;;14.43;2.20;;;10.10;99.90;;;;;;5031824;28;20037;-55
2021/11/08 12:07:42;;;;;;;13.10;2.45;;;10.10;99.90;;;;;;5030089;28;20033;-53
2021/11/08 12:10:08;;;;;;;12.70;2.40;;;10.10;99.90;;;;;;5011769;28;20052;-53
2021/11/08 12:12:34;;;;;;;10.60;2.13;;;10.10;99.90;;;;;;5029990;28;20112;-53
2021/11/08 12:15:08;;;;;;;12.10;2.40;;;10.10;99.90;;;;;;5033046;28;20508;-53
2021/11/08 12:17:46;;;;;;;12.25;2.13;;;10.10;99.90;;;;;;5028719;28;20509;-52
2021/11/08 12:20:16;;;;;;;13.73;2.80;;;10.10;99.90;;;;;;5029743;28;20105;-55
2021/11/08 12:22:42;;;;;;;11.30;2.53;;;10.10;99.90;;;;;;5010344;28;20397;-53
2021/11/08 12:25:10;;;;;;;16.13;2.30;;;10.10;99.90;;;;;;5029818;28;20390;-49
2021/11/08 12:28:11;;;;;;;11.35;2.10;;;10.10;99.90;;;;;;5031442;28;20037;-50
2021/11/08 12:30:40;;;;;;;12.32;2.25;;;10.20;99.90;;;;;;5020254;28;20457;-52
2021/11/08 12:33:07;;;;;;;14.27;2.25;;;10.20;99.90;;;;;;5036639;28;20040;-50
2021/11/08 12:35:37;;;;;;;14.43;2.40;;;10.20;99.90;;;;;;5039088;28;20037;-50
2021/11/08 12:38:25;;;;;;;11.90;2.47;;;10.20;99.90;;;;;;5033909;28;20034;-51
2021/11/08 12:41:17;;;;;;;11.90;2.25;;;10.30;99.90;;;;;;4997855;28;20107;-50
2021/11/08 12:43:58;;;;;;;13.50;2.13;;;10.30;99.90;;;;;;5025674;28;20033;-50
2021/11/08 12:46:31;;;;;;;15.88;2.67;;;10.30;99.90;;;;;;5039864;28;20118;-52
2021/11/08 12:49:15;;;;;;;14.32;2.50;;;10.30;99.90;;;;;;5038127;28;20385;-52
2021/11/08 12:51:51;;;;;;;18.05;2.47;;;10.30;99.90;;;;;;5036036;28;20045;-49
2021/11/08 12:54:18;;;;;;;12.88;1.88;;;10.30;99.90;;;;;;5032587;28;20130;-50
2021/11/08 12:56:44;;;;;;;12.73;2.30;;;10.30;99.90;;;;;;5034700;28;20093;-52
2021/11/08 12:59:25;;;;;;;8.13;1.52;;;10.40;99.90;;;;;;5032187;28;20586;-50
2021/11/08 13:02:09;;;;;;;18.52;1.95;;;10.40;99.90;;;;;;5033929;28;20108;-49
2021/11/08 13:04:48;;;;;;;8.85;1.85;;;10.40;99.90;;;;;;5029055;28;20033;-49
2021/11/08 13:07:15;;;;;;;15.48;2.22;;;10.40;99.90;;;;;;5031222;28;20125;-52
2021/11/08 13:09:53;;;;;;;12.63;1.80;;;10.40;99.90;;;;;;5039708;28;20549;-50
2021/11/08 13:12:40;;;;;;;13.50;1.88;;;10.40;99.90;;;;;;5031846;28;20041;-51
2021/11/08 13:15:18;;;;;;;19.20;2.30;;;10.40;99.90;;;;;;5032978;28;20556;-50
2021/11/08 13:18:13;;;;;;;15.32;1.80;;;10.40;99.90;;;;;;5031852;28;20038;-53
2021/11/08 13:20:41;;;;;;;11.68;2.20;;;10.40;99.90;;;;;;5008680;28;20045;-50
2021/11/08 13:23:08;;;;;;;13.95;2.10;;;10.30;99.90;;;;;;5036171;28;20033;-50
2021/11/08 13:25:55;;;;;;;9.52;1.92;;;10.30;99.90;;;;;;5025033;28;20560;-53
2021/11/08 13:28:32;;;;;;;12.23;2.13;;;10.30;99.90;;;;;;5025401;28;20036;-50
2021/11/08 13:31:00;;;;;;;14.63;2.25;;;10.20;99.90;;;;;;5033304;28;20080;-51
2021/11/08 13:33:37;;;;;;;10.75;2.67;;;10.20;99.90;;;;;;5030733;28;20049;-53
2021/11/08 13:36:03;;;;;;;12.07;2.30;;;10.20;99.90;;;;;;5021921;28;20457;-54
2021/11/08 13:38:35;;;;;;;9.88;2.20;;;10.20;99.90;;;;;;5033325;28;20033;-51
2021/11/08 13:41:03;;;;;;;10.90;1.75;;;10.20;99.90;;;;;;5031487;28;20048;-51
2021/11/08 13:43:44;;;;;;;9.05;1.83;;;10.10;99.90;;;;;;5025009;28;20033;-54
2021/11/08 13:46:13;;;;;;;13.23;2.22;;;10.10;99.90;;;;;;5030697;28;20029;-50
2021/11/08 13:48:48;;;;;;;11.85;2.15;;;10.10;99.90;;;;;;5029482;28;20045;-49
2021/11/08 13:51:24;;;;;;;9.77;1.98;;;10.20;99.90;;;;;;5030490;28;20049;-49
2021/11/08 13:54:04;;;;;;;12.68;2.58;;;10.20;99.90;;;;;;5024843;28;20657;-53
2021/11/08 13:56:36;;;;;;;12.30;1.95;;;10.20;99.90;;;;;;5029867;28;20075;-49
2021/11/08 13:59:08;;;;;;;12.70;2.47;;;10.20;99.90;;;;;;5028984;28;20389;-49
2021/11/08 14:01:37;;;;;;;11.15;3.30;;;10.30;99.90;;;;;;5030052;28;20033;-49
2021/11/08 14:04:03;;;;;;;11.32;2.67;;;10.30;99.90;;;;;;5028052;28;20026;-50
2021/11/08 14:06:32;;;;;;;12.60;2.33;;;10.30;99.90;;;;;;5026965;28;20072;-52
2021/11/08 14:08:59;;;;;;;14.00;2.80;;;10.30;99.90;;;;;;5027177;28;20068;-49
2021/11/08 14:11:41;;;;;;;11.30;2.10;;;10.30;99.90;;;;;;5029057;28;20072;-49
2021/11/08 14:14:10;;;;;;;8.93;1.63;;;10.30;99.90;;;;;;5022379;28;20029;-50
2021/11/08 14:16:38;;;;;;;12.88;2.22;;;10.30;99.90;;;;;;5029229;28;20099;-49
2021/11/08 14:19:05;;;;;;;12.25;1.75;;;10.30;99.90;;;;;;5027974;28;20401;-49
2021/11/08 14:21:32;;;;;;;14.77;2.22;;;10.30;99.90;;;;;;5029898;28;20029;-50
2021/11/08 14:24:04;;;;;;;11.02;1.80;;;10.30;99.90;;;;;;5029357;28;20541;-49
2021/11/08 14:26:30;;;;;;;;;;;10.30;99.90;;;;;;5026284;28;20525;-49
2021/11/08 14:28:56;;;;;;;15.57;1.90;;;10.30;99.90;;;;;;5027390;28;19924;-49
2021/11/08 14:31:27;;;;;;;11.85;1.98;;;10.30;99.90;;;;;;5007754;28;20415;-52
2021/11/08 14:33:57;;;;;;;19.42;2.20;;;10.20;99.90;;;;;;5029558;28;20041;-50
2021/11/08 14:36:26;;;;;;;11.57;1.90;;;10.20;99.90;;;;;;5029142;28;20493;-49
2021/11/08 14:39:04;;;;;;;10.52;1.92;;;10.20;99.90;;;;;;5029100;28;20501;-51
2021/11/08 14:41:34;;;;;;;13.38;2.30;;;10.20;99.90;;;;;;5029428;28;20401;-49
2021/11/08 14:44:08;;;;;;;11.27;2.53;;;10.20;99.90;;;;;;5026087;28;20029;-52
2021/11/08 14:46:43;;;;;;;12.23;2.03;;;10.20;99.90;;;;;;5009594;28;20030;-51
2021/11/08 14:49:10;;;;;;;11.55;2.00;;;10.20;99.90;;;;;;5027428;28;20045;-50